Time;durP1;ratioP1;P1;durP2;ratioP2;P2;SDS_P1;SDS_P2;PMS_P1;PMS_P2;Temp;Humidity;BMP_temperature;BMP_pressure;BME280_temperature;BME280_humidity;BME280_pressure;Samples;Min_cycle;Max_cycle;Signal;HPM_P1;HPM_P2
2022/10/08 00:00:24;;;;;;;40.28;29.83;;;;;;;18.47;54.02;93686.97;4996058;28;20059;-85
2022/10/08 00:02:49;;;;;;;41.60;28.98;;;;;;;18.48;54.14;93690.47;5030741;28;20033;-85
2022/10/08 00:05:15;;;;;;;38.50;28.30;;;;;;;18.47;54.17;93686.97;5004604;28;20041;-86
2022/10/08 00:07:43;;;;;;;37.42;27.02;;;;;;;18.47;54.15;93683.50;5029990;28;20037;-86
2022/10/08 00:10:08;;;;;;;44.13;29.20;;;;;;;18.46;54.32;93688.22;5012689;28;20392;-86
2022/10/08 00:12:34;;;;;;;41.15;29.00;;;;;;;18.46;54.18;93682.00;5026659;28;20071;-86
2022/10/08 00:14:59;;;;;;;36.55;26.48;;;;;;;18.46;54.35;93680.00;5007379;28;20041;-86
2022/10/08 00:17:24;;;;;;;43.10;29.33;;;;;;;18.48;54.23;93674.03;5047489;28;20361;-85
2022/10/08 00:19:51;;;;;;;36.80;27.88;;;;;;;18.47;54.13;93678.03;5001086;28;20041;-85
2022/10/08 00:22:16;;;;;;;40.25;29.27;;;;;;;18.45;54.26;93670.31;4994020;28;20402;-85
2022/10/08 00:24:42;;;;;;;38.88;27.48;;;;;;;18.45;54.01;93673.03;5025773;28;20048;-85
2022/10/08 00:27:07;;;;;;;36.95;27.80;;;;;;;18.46;54.10;93674.53;5046959;28;20045;-85
2022/10/08 00:29:33;;;;;;;38.13;27.98;;;;;;;18.46;53.96;93671.81;5030668;28;20033;-86
2022/10/08 00:31:58;;;;;;;37.25;27.83;;;;;;;18.45;54.35;93675.78;5046767;28;20032;-85
2022/10/08 00:34:24;;;;;;;36.50;26.92;;;;;;;18.45;54.26;93672.31;5029006;28;20086;-86
2022/10/08 00:36:51;;;;;;;43.10;28.60;;;;;;;18.45;53.88;93669.56;5026444;28;20038;-85
2022/10/08 00:39:18;;;;;;;36.85;27.48;;;;;;;18.44;53.97;93671.56;4995564;28;20521;-86
2022/10/08 00:41:45;;;;;;;40.03;27.70;;;;;;;18.43;53.99;93667.34;5030251;28;20033;-85
2022/10/08 00:44:41;;;;;;;39.03;27.35;;;;;;;18.44;54.16;93666.09;5012285;28;20049;-86
2022/10/08 00:47:22;;;;;;;40.03;28.88;;;;;;;18.44;54.34;93674.28;5046429;28;20041;-85
2022/10/08 00:49:48;;;;;;;;;;;;;;;18.46;53.97;93665.59;5009771;28;20034;-85
2022/10/08 00:52:13;;;;;;;38.00;26.95;;;;;;;18.45;54.02;93666.81;5009471;28;19921;-86
2022/10/08 00:54:38;;;;;;;42.13;27.67;;;;;;;18.43;54.14;93663.84;4993206;28;20095;-85
2022/10/08 00:57:05;;;;;;;40.13;27.35;;;;;;;18.42;54.19;93670.56;5009537;28;20399;-85
2022/10/08 00:59:30;;;;;;;37.53;28.02;;;;;;;18.44;54.36;93665.34;5011261;28;20053;-86
2022/10/08 01:01:56;;;;;;;40.22;28.02;;;;;;;18.42;53.60;93663.09;4993930;28;20049;-86
2022/10/08 01:04:21;;;;;;;37.20;27.35;;;;;;;18.42;54.33;93657.63;5002111;28;20044;-85
2022/10/08 01:06:50;;;;;;;37.13;28.30;;;;;;;18.44;54.10;93660.59;4994005;28;20041;-85
2022/10/08 01:09:19;;;;;;;37.65;27.65;;;;;;;18.43;54.24;93658.38;5007958;28;20124;-86
2022/10/08 01:12:02;;;;;;;38.90;28.90;;;;;;;18.43;53.90;93659.13;5012942;28;20029;-85
2022/10/08 01:14:56;;;;;;;40.45;28.55;;;;;;;18.42;54.07;93654.91;5027397;28;20052;-85
2022/10/08 01:17:47;;;;;;;38.85;27.23;;;;;;;18.44;54.11;93648.91;5003080;28;20029;-86
2022/10/08 01:20:21;;;;;;;36.60;27.52;;;;;;;18.42;54.19;93660.38;5029979;28;20045;-86
2022/10/08 01:23:12;;;;;;;38.63;28.63;;;;;;;18.44;54.31;93649.66;5009943;28;20436;-86
2022/10/08 01:25:51;;;;;;;37.78;27.35;;;;;;;18.42;54.41;93656.88;5020689;28;20175;-86
2022/10/08 01:28:33;;;;;;;36.17;26.20;;;;;;;18.43;54.45;93655.63;5026434;28;20045;-85
2022/10/08 01:31:20;;;;;;;40.38;27.85;;;;;;;18.42;54.09;93648.66;4990473;28;20537;-86
2022/10/08 01:34:15;;;;;;;38.65;28.05;;;;;;;18.42;54.34;93645.94;5031535;28;20570;-85
2022/10/08 01:36:44;;;;;;;37.25;26.90;;;;;;;18.42;54.48;93656.88;5028590;28;20045;-86
2022/10/08 01:39:12;;;;;;;39.42;27.42;;;;;;;18.42;54.18;93643.94;5044942;28;20041;-85
2022/10/08 01:41:37;;;;;;;39.15;27.73;;;;;;;18.42;53.97;93649.41;5011584;28;20038;-85
2022/10/08 01:44:18;;;;;;;36.08;27.17;;;;;;;18.41;54.28;93653.41;4992275;28;20033;-86
2022/10/08 01:46:44;;;;;;;39.38;27.73;;;;;;;18.41;54.32;93639.72;4993569;28;20076;-86
2022/10/08 01:49:16;;;;;;;37.63;27.27;;;;;;;18.42;54.21;93651.41;5007170;28;20494;-86
2022/10/08 01:51:51;;;;;;;38.08;28.15;;;;;;;18.41;54.04;93647.94;5013256;28;20524;-86
2022/10/08 01:54:16;;;;;;;32.83;26.27;;;;;;;18.40;54.27;93640.97;5012437;28;20095;-86
2022/10/08 01:56:42;;;;;;;40.97;27.38;;;;;;;18.42;54.47;93648.66;5028659;28;20040;-85
2022/10/08 01:59:11;;;;;;;36.72;27.17;;;;;;;18.42;54.10;93643.94;5028262;28;20051;-86
2022/10/08 02:01:58;;;;;;;36.70;26.45;;;;;;;18.41;54.05;93647.94;5013978;28;20037;-86
2022/10/08 02:04:34;;;;;;;39.20;27.70;;;;;;;18.42;54.30;93646.69;5019061;28;20056;-86
2022/10/08 02:07:13;;;;;;;36.42;27.23;;;;;;;18.41;53.88;93642.47;4999325;28;20041;-85
2022/10/08 02:09:46;;;;;;;40.83;27.95;;;;;;;18.41;54.14;93633.50;5031860;28;20074;-86
2022/10/08 02:12:11;;;;;;;37.45;28.13;;;;;;;18.40;54.25;93643.69;5002212;28;20041;-86
2022/10/08 02:14:39;;;;;;;38.38;26.88;;;;;;;18.39;54.15;93639.50;5032736;28;20489;-85
2022/10/08 02:17:26;;;;;;;38.17;27.08;;;;;;;18.40;54.03;93634.78;5013010;28;20033;-86
2022/10/08 02:20:15;;;;;;;36.53;26.83;;;;;;;18.39;54.12;93634.03;5022317;28;20038;-86
2022/10/08 02:22:50;;;;;;;35.53;26.77;;;;;;;18.40;54.26;93634.78;5030927;28;20037;-86
2022/10/08 02:25:22;;;;;;;35.70;25.63;;;;;;;18.39;54.27;93636.75;5015899;28;20099;-86
2022/10/08 02:27:53;;;;;;;33.88;25.95;;;;;;;18.39;54.39;93625.81;5014257;28;20064;-86
2022/10/08 02:30:18;;;;;;;35.38;25.75;;;;;;;18.39;54.30;93633.28;5011608;28;20046;-86
2022/10/08 02:32:49;;;;;;;33.75;25.92;;;;;;;18.39;54.21;93633.28;4996804;28;20450;-86
2022/10/08 02:35:18;;;;;;;34.92;27.33;;;;;;;18.39;54.28;93627.81;4996151;28;20073;-86
2022/10/08 02:37:47;;;;;;;37.03;27.33;;;;;;;18.38;54.29;93638.00;5025924;28;20036;-86
2022/10/08 02:40:13;;;;;;;34.83;26.27;;;;;;;18.38;54.35;93642.75;5031044;28;20056;-86
2022/10/08 02:42:41;;;;;;;38.75;27.65;;;;;;;18.38;54.25;93634.53;5015658;28;20029;-86
2022/10/08 02:45:18;;;;;;;33.95;26.75;;;;;;;18.38;54.33;93637.28;5029774;28;20037;-86
2022/10/08 02:47:43;;;;;;;36.78;27.48;;;;;;;18.38;54.20;93643.50;5003523;28;20175;-86
2022/10/08 02:50:14;;;;;;;34.60;26.83;;;;;;;18.38;54.05;93640.00;5014692;28;20045;-86
2022/10/08 02:52:40;;;;;;;33.50;26.63;;;;;;;18.37;54.54;93644.00;5015304;28;20482;-85
2022/10/08 02:55:18;;;;;;;35.63;26.88;;;;;;;18.37;54.22;93633.03;5031360;28;20021;-86
2022/10/08 02:57:45;;;;;;;38.67;26.67;;;;;;;18.36;54.25;93632.31;5010303;28;20038;-86
2022/10/08 03:00:11;;;;;;;34.55;25.65;;;;;;;18.38;54.24;93640.75;5028862;28;20124;-86
2022/10/08 03:02:44;;;;;;;36.05;27.25;;;;;;;18.37;54.34;93638.50;5030045;28;20053;-86
2022/10/08 03:05:13;;;;;;;36.20;27.35;;;;;;;18.38;54.23;93637.28;4995125;28;20042;-85
2022/10/08 03:07:39;;;;;;;32.25;25.33;;;;;;;18.36;54.41;93640.50;4998380;28;20037;-85
2022/10/08 03:10:05;;;;;;;34.75;25.50;;;;;;;18.39;54.17;93630.56;5030293;28;20033;-86
2022/10/08 03:12:31;;;;;;;35.95;26.17;;;;;;;18.38;54.18;93637.28;5014618;28;20379;-86
2022/10/08 03:14:56;;;;;;;33.55;25.42;;;;;;;18.38;54.18;93643.50;5015179;28;20071;-86
2022/10/08 03:17:25;;;;;;;33.63;26.25;;;;;;;18.36;54.35;93654.19;4997929;28;20064;-86
2022/10/08 03:19:50;;;;;;;36.30;26.58;;;;;;;18.38;54.22;93650.94;4995921;28;20059;-86
2022/10/08 03:22:16;;;;;;;33.55;25.85;;;;;;;18.37;54.58;93646.72;5012567;28;20037;-86
2022/10/08 03:24:41;;;;;;;38.65;26.67;;;;;;;18.39;54.32;93655.19;5028427;28;20033;-85
2022/10/08 03:27:07;;;;;;;35.67;26.25;;;;;;;18.39;54.04;93652.44;5014063;28;20057;-86
2022/10/08 03:29:32;;;;;;;33.10;25.50;;;;;;;18.37;54.36;93658.41;5033780;28;20269;-86
2022/10/08 03:31:57;;;;;;;34.85;26.25;;;;;;;18.36;54.39;93653.44;5026118;28;20518;-86
2022/10/08 03:34:26;;;;;;;39.22;26.80;;;;;;;18.36;54.41;93653.44;5030981;28;20041;-86
2022/10/08 03:36:51;;;;;;;34.83;26.40;;;;;;;18.38;53.94;93654.44;5030942;28;20043;-86
2022/10/08 03:39:17;;;;;;;36.78;26.02;;;;;;;18.36;54.58;93647.97;5019235;28;20045;-86
2022/10/08 03:41:42;;;;;;;33.75;25.98;;;;;;;18.36;54.24;93658.94;5011269;28;20380;-86
2022/10/08 03:44:08;;;;;;;33.95;25.13;;;;;;;18.36;54.44;93656.19;4994147;28;20036;-86
2022/10/08 03:46:33;;;;;;;34.95;25.02;;;;;;;18.38;54.65;93653.69;4994758;28;20057;-85
2022/10/08 03:48:59;;;;;;;39.05;28.05;;;;;;;18.37;54.43;93663.91;4995149;28;20120;-85
2022/10/08 03:51:24;;;;;;;35.28;26.50;;;;;;;18.37;54.35;93654.94;5003444;28;20576;-86
2022/10/08 03:53:49;;;;;;;34.63;26.42;;;;;;;18.36;54.26;93667.13;5031099;28;20049;-86
2022/10/08 03:56:20;;;;;;;37.25;27.77;;;;;;;18.37;54.13;93663.16;5030414;28;20052;-86
2022/10/08 03:58:51;;;;;;;37.47;26.95;;;;;;;18.36;54.17;93662.41;5014711;28;20037;-85
2022/10/08 04:01:16;;;;;;;32.60;24.73;;;;;;;18.36;54.42;93667.13;5024519;28;20094;-85
2022/10/08 04:03:44;;;;;;;33.38;25.25;;;;;;;18.36;54.67;93667.88;5010086;28;20395;-86
2022/10/08 04:06:09;;;;;;;36.05;26.30;;;;;;;18.37;54.24;93665.88;5010998;28;20041;-86
2022/10/08 04:08:35;;;;;;;35.72;25.65;;;;;;;18.35;54.50;93655.44;5004460;28;20048;-86
2022/10/08 04:11:04;;;;;;;37.30;26.95;;;;;;;18.36;54.58;93658.94;5013650;28;20048;-86
2022/10/08 04:13:29;;;;;;;35.33;26.48;;;;;;;18.35;54.23;93660.91;5004173;28;20121;-85
2022/10/08 04:16:00;;;;;;;35.92;26.00;;;;;;;18.35;54.38;93660.16;4998199;28;20481;-85
2022/10/08 04:18:25;;;;;;;34.90;26.00;;;;;;;18.35;54.20;93655.44;5013847;28;20040;-86
2022/10/08 04:20:55;;;;;;;36.17;26.20;;;;;;;18.34;53.85;93661.41;4996543;28;20045;-86
2022/10/08 04:23:20;;;;;;;37.20;26.08;;;;;;;18.35;54.53;93662.91;4994472;28;20503;-86
2022/10/08 04:25:50;;;;;;;33.17;25.48;;;;;;;18.34;54.43;93658.69;5003856;28;20037;-85
2022/10/08 04:28:16;;;;;;;37.45;26.98;;;;;;;18.35;54.19;93663.66;4993107;28;20466;-86
2022/10/08 04:30:41;;;;;;;33.83;25.42;;;;;;;18.35;54.43;93660.91;5021669;28;20043;-86
2022/10/08 04:33:06;;;;;;;36.38;25.67;;;;;;;18.34;53.94;93659.44;4993622;28;20041;-86
2022/10/08 04:35:36;;;;;;;32.70;24.92;;;;;;;18.34;54.42;93661.41;5010599;28;20491;-85
2022/10/08 04:38:01;;;;;;;33.28;24.10;;;;;;;18.35;54.33;93660.91;5009672;28;20124;-85
2022/10/08 04:40:27;;;;;;;31.30;25.08;;;;;;;18.33;54.51;93657.94;5022220;28;20037;-86
2022/10/08 04:42:52;;;;;;;33.78;26.70;;;;;;;18.34;54.37;93664.91;5011738;28;20039;-86
2022/10/08 04:45:18;;;;;;;35.22;25.95;;;;;;;18.36;54.03;93664.41;5009760;28;20038;-86
2022/10/08 04:47:43;;;;;;;37.15;25.83;;;;;;;18.35;54.42;93662.91;4989986;28;20045;-86
2022/10/08 04:50:09;;;;;;;36.95;25.80;;;;;;;18.34;54.45;93666.88;5006164;28;20056;-86
2022/10/08 04:52:35;;;;;;;37.45;25.95;;;;;;;18.34;53.77;93664.16;5012629;28;20071;-85
2022/10/08 04:55:00;;;;;;;35.90;26.35;;;;;;;18.34;54.33;93672.38;5013654;28;20033;-86
2022/10/08 04:57:26;;;;;;;35.70;25.27;;;;;;;18.35;54.43;93665.66;5012986;28;20049;-85
2022/10/08 04:59:51;;;;;;;33.90;25.17;;;;;;;18.34;54.29;93683.31;5046579;28;20036;-85
2022/10/08 05:02:16;;;;;;;33.17;25.55;;;;;;;18.32;54.22;93661.91;5011493;28;20041;-86
2022/10/08 05:04:42;;;;;;;35.28;25.70;;;;;;;18.33;54.34;93663.41;5020575;28;20423;-86
2022/10/08 05:07:07;;;;;;;34.67;25.35;;;;;;;18.35;54.24;93673.84;5034650;28;20522;-86
2022/10/08 05:09:33;;;;;;;32.90;24.67;;;;;;;18.35;54.47;93671.13;5027781;28;20057;-85
2022/10/08 05:11:58;;;;;;;34.90;25.42;;;;;;;18.33;54.17;93682.56;5007887;28;20044;-86
2022/10/08 05:14:23;;;;;;;34.60;25.73;;;;;;;18.34;54.22;93681.31;5028313;28;20044;-85
2022/10/08 05:16:49;;;;;;;35.38;26.42;;;;;;;18.33;54.64;93682.56;5012558;28;20037;-86
2022/10/08 05:19:15;;;;;;;35.45;26.75;;;;;;;18.33;53.94;93685.31;5045288;28;20033;-85
2022/10/08 05:21:41;;;;;;;31.65;25.25;;;;;;;18.32;54.28;93683.06;5028822;28;20044;-86
2022/10/08 05:24:07;;;;;;;31.15;24.77;;;;;;;18.34;54.16;93677.84;5028929;28;20041;-85
2022/10/08 05:26:34;;;;;;;33.60;25.02;;;;;;;18.35;53.99;93682.81;5006753;28;20038;-85
2022/10/08 05:28:59;;;;;;;33.00;24.38;;;;;;;18.34;54.13;93672.38;5028662;28;20029;-85
2022/10/08 05:31:25;;;;;;;30.88;25.23;;;;;;;18.32;54.48;93683.81;5011817;28;20219;-85
2022/10/08 05:33:51;;;;;;;30.67;24.52;;;;;;;18.32;54.02;93678.34;5029794;28;20034;-86
2022/10/08 05:36:19;;;;;;;34.35;24.48;;;;;;;18.32;54.46;93691.28;5025853;28;20076;-86
2022/10/08 05:38:44;;;;;;;36.75;25.70;;;;;;;18.34;54.47;93689.53;5008169;28;20124;-86
2022/10/08 05:41:13;;;;;;;31.50;24.60;;;;;;;18.33;54.04;93693.50;5026206;28;20098;-85
2022/10/08 05:43:38;;;;;;;31.40;24.83;;;;;;;18.33;54.28;93701.72;4993236;28;20065;-85
2022/10/08 05:46:04;;;;;;;34.40;25.75;;;;;;;18.32;54.32;93699.50;4992398;28;20514;-86
2022/10/08 05:48:29;;;;;;;31.98;24.45;;;;;;;18.32;54.11;93694.75;5008960;28;20038;-85
2022/10/08 05:50:55;;;;;;;32.05;23.83;;;;;;;18.33;54.18;93707.19;5009168;28;20041;-86
2022/10/08 05:53:20;;;;;;;38.88;26.40;;;;;;;18.33;53.97;93696.25;5011226;28;20041;-86
2022/10/08 05:55:46;;;;;;;34.70;26.08;;;;;;;18.33;54.27;93696.25;5013074;28;20044;-86
2022/10/08 05:58:14;;;;;;;33.67;24.58;;;;;;;18.33;54.35;93700.97;5028491;28;20045;-86
2022/10/08 06:00:39;;;;;;;33.25;25.17;;;;;;;18.36;53.91;93708.94;5012587;28;20044;-85
2022/10/08 06:03:04;;;;;;;33.80;25.13;;;;;;;18.35;54.22;93712.16;5013842;28;20030;-86
2022/10/08 06:05:30;;;;;;;31.70;24.23;;;;;;;18.35;54.26;93703.97;5028162;28;20037;-85
2022/10/08 06:07:58;;;;;;;32.90;24.67;;;;;;;18.35;54.36;93723.13;5024089;28;20042;-85
2022/10/08 06:10:24;;;;;;;31.65;24.10;;;;;;;18.36;54.03;93716.41;5008772;28;20404;-86
2022/10/08 06:12:49;;;;;;;30.75;24.35;;;;;;;18.35;54.26;93715.66;5017520;28;20056;-85
2022/10/08 06:15:15;;;;;;;32.72;25.95;;;;;;;18.36;54.31;93721.88;5027947;28;20392;-85
2022/10/08 06:17:40;;;;;;;35.35;25.58;;;;;;;18.33;54.14;93726.34;5028817;28;20079;-86
2022/10/08 06:20:06;;;;;;;33.80;25.10;;;;;;;18.34;54.10;93724.38;5014734;28;20037;-86
2022/10/08 06:22:32;;;;;;;37.15;25.27;;;;;;;18.37;54.18;93723.38;5017969;28;20099;-86
2022/10/08 06:24:57;;;;;;;36.47;25.77;;;;;;;18.35;54.37;93728.59;5009375;28;20573;-86
2022/10/08 06:27:22;;;;;;;35.20;24.92;;;;;;;18.34;54.07;93727.09;5034316;28;20041;-86
2022/10/08 06:29:48;;;;;;;29.02;21.90;;;;;;;18.30;54.45;93730.09;5033994;28;20029;-86
2022/10/08 06:32:13;;;;;;;26.70;19.38;;;;;;;18.30;54.68;93729.34;5027649;28;20048;-86
2022/10/08 06:34:40;;;;;;;23.55;16.98;;;;;;;18.26;54.84;93737.06;5027171;28;20033;-86
2022/10/08 06:37:06;;;;;;;22.95;16.25;;;;;;;18.22;55.25;93733.84;5028548;28;20444;-86
2022/10/08 06:39:31;;;;;;;25.70;16.48;;;;;;;18.20;55.56;93734.34;5011998;28;20040;-86
2022/10/08 06:41:57;;;;;;;25.25;15.73;;;;;;;18.20;55.93;93741.81;5027934;28;20051;-85
2022/10/08 06:44:22;;;;;;;26.20;15.52;;;;;;;18.16;56.11;93733.88;4994676;28;20049;-85
2022/10/08 06:46:47;;;;;;;22.08;15.85;;;;;;;18.18;56.10;93742.31;5008804;28;20046;-86
2022/10/08 06:49:13;;;;;;;23.08;15.70;;;;;;;18.21;56.09;93748.75;5008102;28;20052;-85
2022/10/08 06:51:38;;;;;;;24.55;16.17;;;;;;;18.23;56.13;93746.28;5048662;28;20041;-85
2022/10/08 06:54:04;;;;;;;20.75;15.82;;;;;;;18.25;55.85;93749.25;5003171;28;20115;-86
2022/10/08 06:56:29;;;;;;;23.30;16.23;;;;;;;18.25;55.92;93752.75;5012231;28;20504;-85
2022/10/08 06:58:55;;;;;;;23.73;15.55;;;;;;;18.27;55.95;93754.97;5029998;28;20037;-86
2022/10/08 07:01:23;;;;;;;21.88;17.02;;;;;;;18.28;55.91;93742.78;5028106;28;20053;-85
2022/10/08 07:03:54;;;;;;;26.20;18.08;;;;;;;18.28;55.84;93754.47;5034554;28;20525;-86
2022/10/08 07:06:19;;;;;;;22.00;17.83;;;;;;;18.28;55.58;93759.94;5031356;28;20040;-86
2022/10/08 07:08:45;;;;;;;23.15;18.58;;;;;;;18.30;55.38;93759.44;5015192;28;20040;-86
2022/10/08 07:11:12;;;;;;;23.55;18.58;;;;;;;18.31;55.77;93766.41;5030718;28;20566;-86
2022/10/08 07:13:38;;;;;;;23.73;18.45;;;;;;;18.30;55.47;93757.47;5009641;28;20069;-86
2022/10/08 07:16:08;;;;;;;24.85;18.70;;;;;;;18.31;55.53;93767.16;5011477;28;20411;-86
2022/10/08 07:18:33;;;;;;;25.88;20.02;;;;;;;18.33;55.08;93756.47;5041116;28;20049;-86
2022/10/08 07:20:59;;;;;;;31.63;21.40;;;;;;;18.33;55.20;93751.00;5030953;28;20146;-85
2022/10/08 07:23:24;;;;;;;26.67;20.15;;;;;;;18.32;55.02;93762.44;5019766;28;20041;-86
2022/10/08 07:26:00;;;;;;;24.98;19.33;;;;;;;18.33;54.99;93747.50;5014236;28;20041;-86
2022/10/08 07:28:27;;;;;;;25.05;19.50;;;;;;;18.34;55.13;93757.94;5013855;28;20037;-85
2022/10/08 07:30:52;;;;;;;27.52;20.95;;;;;;;18.34;54.92;93752.47;5031340;28;20483;-85
2022/10/08 07:33:18;;;;;;;22.73;19.20;;;;;;;18.33;55.10;93742.78;5013663;28;20072;-86
2022/10/08 07:35:43;;;;;;;23.63;19.85;;;;;;;18.36;54.69;93738.28;5031841;28;20044;-86
2022/10/08 07:38:09;;;;;;;25.85;20.80;;;;;;;18.36;55.12;93735.56;5029776;28;20045;-85
2022/10/08 07:40:34;;;;;;;25.17;19.48;;;;;;;18.36;54.96;93738.28;5030688;28;20040;-86
2022/10/08 07:43:01;;;;;;;25.33;20.17;;;;;;;18.37;55.01;93742.53;5014766;28;20033;-86
2022/10/08 07:45:26;;;;;;;27.02;20.63;;;;;;;18.36;54.88;93739.03;5030254;28;20285;-86
2022/10/08 07:47:51;;;;;;;25.73;20.13;;;;;;;18.37;55.17;93737.78;5031067;28;20037;-85
2022/10/08 07:50:17;;;;;;;24.63;20.25;;;;;;;18.38;54.96;93736.53;5011449;28;20036;-86
2022/10/08 07:52:42;;;;;;;26.13;20.63;;;;;;;18.40;54.83;93738.78;5030831;28;20041;-86
2022/10/08 07:55:08;;;;;;;27.73;20.90;;;;;;;18.41;54.69;93740.25;5026179;28;20037;-86
2022/10/08 07:57:33;;;;;;;28.35;20.52;;;;;;;18.42;54.61;93755.44;4997256;28;20037;-85
2022/10/08 07:59:58;;;;;;;25.00;19.23;;;;;;;18.43;54.91;93754.19;5014422;28;20487;-86
2022/10/08 08:02:24;;;;;;;27.42;19.38;;;;;;;18.45;54.38;93757.16;5008265;28;20048;-86
2022/10/08 08:04:49;;;;;;;26.33;20.10;;;;;;;18.45;54.72;93757.91;5007809;28;20025;-86
2022/10/08 08:07:15;;;;;;;29.15;21.42;;;;;;;18.46;54.11;93762.13;5028373;28;20411;-86
2022/10/08 08:09:40;;;;;;;27.35;20.20;;;;;;;18.47;54.67;93762.88;5029113;28;20037;-86
2022/10/08 08:12:05;;;;;;;28.95;21.08;;;;;;;18.47;54.53;93765.63;5029109;28;20562;-86
2022/10/08 08:14:32;;;;;;;23.33;19.38;;;;;;;18.48;54.29;93778.81;5015961;28;20052;-86
2022/10/08 08:16:57;;;;;;;29.25;21.30;;;;;;;18.50;54.41;93775.56;5014476;28;20055;-85
2022/10/08 08:19:23;;;;;;;27.13;21.23;;;;;;;18.52;54.20;93775.81;4994767;28;20041;-86
2022/10/08 08:21:48;;;;;;;29.52;20.40;;;;;;;18.53;54.31;93771.09;5001775;28;20045;-85
2022/10/08 08:24:15;;;;;;;28.15;20.85;;;;;;;18.54;53.94;93775.31;4972575;28;20041;-86
2022/10/08 08:26:41;;;;;;;25.17;19.75;;;;;;;18.54;54.23;93776.06;4988862;28;20045;-86
2022/10/08 08:29:10;;;;;;;28.52;20.23;;;;;;;18.53;54.43;93784.78;5005151;28;20058;-86
2022/10/08 08:31:38;;;;;;;26.70;21.15;;;;;;;18.57;54.02;93779.78;5005822;28;20096;-86
2022/10/08 08:34:07;;;;;;;25.15;19.70;;;;;;;18.58;54.36;93773.06;5003883;28;20088;-86
2022/10/08 08:36:34;;;;;;;27.75;20.17;;;;;;;18.59;54.29;93780.03;4992955;28;20049;-86
2022/10/08 08:38:59;;;;;;;23.27;19.27;;;;;;;18.59;54.33;93783.53;4977673;28;20034;-86
2022/10/08 08:41:34;;;;;;;26.88;21.40;;;;;;;18.61;54.16;93785.78;4988367;28;20120;-86
2022/10/08 08:44:07;;;;;;;24.10;19.88;;;;;;;18.61;54.18;93783.78;5005096;28;20038;-86
2022/10/08 08:46:32;;;;;;;23.80;20.52;;;;;;;18.61;54.21;93783.78;5002968;28;20502;-86
2022/10/08 08:48:59;;;;;;;24.73;19.90;;;;;;;18.62;54.13;93784.53;5008936;28;20042;-86
2022/10/08 08:51:24;;;;;;;28.88;19.20;;;;;;;18.64;54.13;93785.50;4979903;28;20034;-86
2022/10/08 08:53:49;;;;;;;25.75;20.50;;;;;;;18.66;53.97;93791.22;5013887;28;20045;-86
2022/10/08 08:56:15;;;;;;;27.13;20.70;;;;;;;18.67;53.84;93794.69;5009043;28;20581;-86
2022/10/08 08:58:43;;;;;;;24.98;20.58;;;;;;;18.67;54.11;93786.50;4993744;28;20168;-86
2022/10/08 09:01:08;;;;;;;25.52;21.25;;;;;;;18.66;53.96;93793.22;5010003;28;20041;-86
2022/10/08 09:03:39;;;;;;;24.52;20.38;;;;;;;18.68;54.15;93793.47;5032867;28;20043;-85
2022/10/08 09:06:08;;;;;;;25.20;19.65;;;;;;;18.66;54.08;93785.75;5029085;28;20636;-86
2022/10/08 09:08:38;;;;;;;25.05;19.17;;;;;;;18.68;54.41;93793.47;5003907;28;20045;-85
2022/10/08 09:11:04;;;;;;;28.70;20.98;;;;;;;18.68;53.99;93786.00;4993691;28;20034;-86
2022/10/08 09:13:33;;;;;;;24.42;20.50;;;;;;;18.70;53.92;93791.72;4993407;28;20041;-85
2022/10/08 09:15:58;;;;;;;27.23;20.58;;;;;;;18.69;54.02;93782.00;5025712;28;20049;-85
2022/10/08 09:18:24;;;;;;;27.02;20.65;;;;;;;18.69;54.15;93797.69;5020510;28;20041;-86
2022/10/08 09:20:49;;;;;;;28.13;20.85;;;;;;;18.70;53.98;93796.44;5013243;28;20036;-86
2022/10/08 09:23:19;;;;;;;26.90;21.02;;;;;;;18.69;53.84;93792.97;5012755;28;20041;-86
2022/10/08 09:26:06;;;;;;;25.23;19.63;;;;;;;18.69;54.19;93792.97;5028880;28;20045;-86
2022/10/08 09:28:51;;;;;;;24.77;21.25;;;;;;;18.69;54.02;93798.44;5043920;28;20053;-86
2022/10/08 09:31:26;;;;;;;27.17;20.98;;;;;;;18.70;54.27;93791.72;5029092;28;20041;-86
2022/10/08 09:34:00;;;;;;;25.65;20.23;;;;;;;18.71;53.73;93786.97;5018249;28;20042;-86
2022/10/08 09:36:35;;;;;;;24.73;20.35;;;;;;;18.70;53.69;93783.50;5009075;28;20038;-86
2022/10/08 09:39:01;;;;;;;25.58;20.25;;;;;;;18.71;53.89;93787.72;5025682;28;20045;-86
2022/10/08 09:41:29;;;;;;;25.13;20.98;;;;;;;18.71;54.46;93784.25;4995636;28;20048;-86
2022/10/08 09:44:20;;;;;;;28.83;20.85;;;;;;;18.70;54.20;93788.97;5018347;28;20042;-86
2022/10/08 09:46:46;;;;;;;28.13;20.55;;;;;;;18.72;53.70;93783.00;5008633;28;20206;-86
2022/10/08 09:49:26;;;;;;;27.90;20.30;;;;;;;18.72;53.90;93775.53;4994264;28;20124;-86
2022/10/08 09:51:51;;;;;;;25.73;19.95;;;;;;;18.74;53.77;93783.22;5012306;28;20033;-86
2022/10/08 09:54:20;;;;;;;26.80;19.67;;;;;;;18.73;54.40;93777.00;5004760;28;20052;-86
2022/10/08 09:56:53;;;;;;;28.05;19.83;;;;;;;18.72;54.11;93770.03;4992849;28;20152;-86
2022/10/08 09:59:19;;;;;;;24.38;19.75;;;;;;;18.73;54.25;93770.78;4995924;28;20033;-86
2022/10/08 10:01:45;;;;;;;25.08;20.08;;;;;;;18.73;54.10;93770.78;5017979;28;20172;-86
2022/10/08 10:04:17;;;;;;;25.27;19.88;;;;;;;18.72;54.06;93770.03;4997555;28;20453;-85
2022/10/08 10:06:44;;;;;;;24.27;19.45;;;;;;;18.74;54.10;93780.50;4993217;28;20120;-86
2022/10/08 10:09:10;;;;;;;24.08;19.52;;;;;;;18.73;54.30;93774.28;5007401;28;20452;-86
2022/10/08 10:11:46;;;;;;;25.08;20.15;;;;;;;18.73;54.03;93776.25;5047168;28;20033;-86
2022/10/08 10:14:33;;;;;;;26.17;20.73;;;;;;;18.75;54.10;93782.00;5002579;28;20049;-86
2022/10/08 10:17:02;;;;;;;23.23;19.63;;;;;;;18.74;54.37;93780.50;5026151;28;20029;-85
2022/10/08 10:19:40;;;;;;;26.35;18.35;;;;;;;18.72;54.06;93780.25;5005742;28;20064;-86
2022/10/08 10:22:10;;;;;;;24.65;19.33;;;;;;;18.73;54.47;93785.22;5011595;28;20495;-86
2022/10/08 10:24:55;;;;;;;28.92;19.08;;;;;;;18.74;54.24;93777.75;5028538;28;20045;-86
2022/10/08 10:27:30;;;;;;;23.98;19.23;;;;;;;18.75;54.12;93776.50;5015606;28;20269;-85
2022/10/08 10:30:04;;;;;;;24.90;19.65;;;;;;;18.75;54.09;93773.78;5000513;28;20131;-85
2022/10/08 10:32:33;;;;;;;27.60;20.27;;;;;;;18.75;54.32;93779.25;4995928;28;20034;-86
2022/10/08 10:35:08;;;;;;;25.65;19.70;;;;;;;18.75;54.35;93771.78;5012724;28;20402;-86
2022/10/08 10:37:38;;;;;;;25.15;18.55;;;;;;;18.74;54.47;93780.50;5015827;28;20037;-85
2022/10/08 10:40:22;;;;;;;25.35;19.75;;;;;;;18.73;54.42;93774.28;5014559;28;20029;-86
2022/10/08 10:42:55;;;;;;;28.45;20.08;;;;;;;18.74;54.14;93772.28;5032294;28;20041;-85
2022/10/08 10:45:23;;;;;;;25.10;19.27;;;;;;;18.75;54.24;93766.31;4997018;28;20065;-86
2022/10/08 10:47:49;;;;;;;24.67;20.00;;;;;;;18.75;54.42;93758.09;5031443;28;20041;-86
2022/10/08 10:50:15;;;;;;;27.33;20.85;;;;;;;18.76;54.35;93759.56;5014947;28;20048;-86
2022/10/08 10:52:56;;;;;;;25.38;19.42;;;;;;;18.74;54.48;93753.84;5005345;28;20033;-85
2022/10/08 10:55:30;;;;;;;38.47;29.67;;;;;;;18.74;54.17;93745.63;5030292;28;20037;-85
2022/10/08 10:58:33;;;;;;;28.40;20.65;;;;;;;18.73;54.56;93752.38;5012285;28;20037;-86
2022/10/08 11:01:06;;;;;;;27.13;22.38;;;;;;;18.73;54.04;93748.88;5030085;28;20096;-86
2022/10/08 11:03:40;;;;;;;24.20;19.55;;;;;;;18.72;54.36;93750.88;5001096;28;20037;-86
2022/10/08 11:06:18;;;;;;;21.42;19.13;;;;;;;18.75;54.52;93740.91;5048989;28;20068;-86
2022/10/08 11:08:51;;;;;;;23.65;19.30;;;;;;;18.74;54.36;93748.38;5030041;28;20065;-86
2022/10/08 11:11:22;;;;;;;27.45;20.30;;;;;;;18.75;54.47;93744.38;5012198;28;20046;-86
2022/10/08 11:14:00;;;;;;;25.88;19.40;;;;;;;18.75;54.25;93741.66;5029482;28;20034;-86
2022/10/08 11:16:41;;;;;;;27.27;20.45;;;;;;;18.74;54.32;93744.91;5023479;28;20484;-86
2022/10/08 11:19:15;;;;;;;27.92;19.70;;;;;;;18.77;54.34;93744.63;5030263;28;20029;-86
2022/10/08 11:21:43;;;;;;;23.45;19.55;;;;;;;18.77;54.53;93738.41;5007246;28;20035;-86
2022/10/08 11:24:14;;;;;;;24.40;19.85;;;;;;;18.76;54.53;93745.13;5011110;28;20068;-86